MSC3107 HECA-LEMD
Flight info
| Callsign | MSC3107 |
|---|---|
| Flight time | 4h 51m |
| Altitude | 32000 |
| Route | CVO L617 NABSI M872 METRU UP868 ARLOS DCT AMIBO DCT EMLAR DCT DINUX DCT SONAK DCT MORJA UA411 ANB UM134 LUXUR M134 VLC N733 PRADO |
| Aircraft | A320/M-SDE3FGHIRWY/LB1 |
Departure
| Time | 2026-05-04 16:19 |
|---|---|
| Airport | Cairo International Airport (HECA) |
Arrival
| Time | 2026-05-04 21:10 |
|---|---|
| Airport | Adolfo Suárez Madrid–Barajas Airport (LEMD) |
| Time | Latitude | Longitude | Altitude | Speed | Heading |
|---|---|---|---|---|---|
| 2026-05-04 15:12 | 30.10768 | 31.39187 | 375 ft | 0 kts | 75° |
| 2026-05-04 15:27 | 30.10768 | 31.39186 | 375 ft | 0 kts | 75° |
| 2026-05-04 15:59 | 30.10767 | 31.39186 | 374 ft | 0 kts | 75° |
| 2026-05-04 16:05 | 30.10765 | 31.39175 | 374 ft | 4 kts | 75° |
| 2026-05-04 16:05 | 30.10758 | 31.39144 | 374 ft | 4 kts | 75° |
| 2026-05-04 16:05 | 30.10756 | 31.39092 | 374 ft | 4 kts | 127° |
| 2026-05-04 16:06 | 30.10776 | 31.39074 | 374 ft | 4 kts | 161° |
| 2026-05-04 16:06 | 30.10783 | 31.39072 | 374 ft | 2 kts | 165° |
| 2026-05-04 16:09 | 30.10782 | 31.39072 | 374 ft | 1 kts | 165° |
| 2026-05-04 16:09 | 30.10728 | 31.39089 | 374 ft | 7 kts | 165° |
| 2026-05-04 16:10 | 30.10555 | 31.39145 | 374 ft | 18 kts | 161° |
| 2026-05-04 16:11 | 30.10582 | 31.39440 | 374 ft | 10 kts | 75° |
| 2026-05-04 16:11 | 30.10599 | 31.39516 | 374 ft | 12 kts | 75° |
| 2026-05-04 16:12 | 30.10589 | 31.39843 | 374 ft | 13 kts | 165° |
| 2026-05-04 16:12 | 30.10601 | 31.40115 | 374 ft | 18 kts | 48° |
| 2026-05-04 16:13 | 30.10777 | 31.40346 | 374 ft | 20 kts | 49° |
| 2026-05-04 16:13 | 30.10971 | 31.40603 | 374 ft | 22 kts | 49° |
| 2026-05-04 16:14 | 30.11184 | 31.40885 | 374 ft | 25 kts | 49° |
| 2026-05-04 16:14 | 30.11417 | 31.41197 | 374 ft | 18 kts | 53° |
| 2026-05-04 16:15 | 30.11533 | 31.41509 | 374 ft | 22 kts | 49° |
| 2026-05-04 16:16 | 30.11788 | 31.41846 | 374 ft | 31 kts | 49° |
| 2026-05-04 16:16 | 30.12214 | 31.42416 | 374 ft | 31 kts | 49° |
| 2026-05-04 16:17 | 30.12474 | 31.42802 | 374 ft | 29 kts | 90° |
| 2026-05-04 16:18 | 30.12081 | 31.42633 | 371 ft | 65 kts | 229° |
| 2026-05-04 16:18 | 30.11640 | 31.42048 | 370 ft | 125 kts | 229° |
| 2026-05-04 16:19 | 30.09375 | 31.39031 | 1602 ft | 176 kts | 234° |
| 2026-05-04 16:19 | 30.07989 | 31.36487 | 2179 ft | 203 kts | 266° |
| 2026-05-04 16:20 | 30.10648 | 31.32479 | 3382 ft | 243 kts | 319° |
| 2026-05-04 16:20 | 30.13253 | 31.29838 | 4846 ft | 253 kts | 318° |
| 2026-05-04 16:21 | 30.17279 | 31.25699 | 7068 ft | 264 kts | 316° |
| 2026-05-04 16:22 | 30.20049 | 31.22854 | 8632 ft | 267 kts | 315° |
| 2026-05-04 16:22 | 30.24276 | 31.18514 | 10427 ft | 291 kts | 314° |
| 2026-05-04 16:23 | 30.29201 | 31.13428 | 11548 ft | 328 kts | 315° |
| 2026-05-04 16:24 | 30.35552 | 31.06899 | 13946 ft | 336 kts | 314° |
| 2026-05-04 16:25 | 30.39068 | 31.03278 | 15079 ft | 340 kts | 314° |
| 2026-05-04 16:26 | 30.46219 | 30.95890 | 17262 ft | 349 kts | 313° |
| 2026-05-04 16:26 | 30.51709 | 30.90206 | 18797 ft | 355 kts | 312° |
| 2026-05-04 16:27 | 30.55412 | 30.86370 | 19666 ft | 359 kts | 312° |
| 2026-05-04 16:28 | 30.61051 | 30.80522 | 20942 ft | 365 kts | 312° |
| 2026-05-04 16:28 | 30.66781 | 30.74559 | 22154 ft | 372 kts | 312° |
| 2026-05-04 16:29 | 30.74561 | 30.66455 | 23712 ft | 380 kts | 311° |
| 2026-05-04 16:30 | 30.80507 | 30.60252 | 24641 ft | 385 kts | 311° |
| 2026-05-04 16:31 | 30.84510 | 30.56071 | 25261 ft | 389 kts | 312° |
| 2026-05-04 16:31 | 30.90605 | 30.49703 | 26104 ft | 395 kts | 312° |
| 2026-05-04 16:32 | 30.96764 | 30.43232 | 26953 ft | 400 kts | 312° |
| 2026-05-04 16:33 | 31.00914 | 30.38867 | 27492 ft | 404 kts | 312° |
| 2026-05-04 16:33 | 31.05113 | 30.34461 | 27983 ft | 408 kts | 312° |
| 2026-05-04 16:34 | 31.08876 | 30.29586 | 28440 ft | 402 kts | 297° |
| 2026-05-04 16:34 | 31.10116 | 30.26684 | 28685 ft | 399 kts | 288° |
| 2026-05-04 16:35 | 31.12684 | 30.17402 | 29359 ft | 403 kts | 286° |
| 2026-05-04 16:35 | 31.15234 | 30.08035 | 30290 ft | 402 kts | 286° |
| 2026-05-04 16:36 | 31.16077 | 30.04939 | 30589 ft | 400 kts | 286° |
| 2026-05-04 16:36 | 31.17759 | 29.98756 | 31174 ft | 398 kts | 286° |
| 2026-05-04 16:37 | 31.20106 | 29.92915 | 31711 ft | 402 kts | 301° |
| 2026-05-04 16:37 | 31.21754 | 29.90283 | 31978 ft | 402 kts | 302° |
| 2026-05-04 16:37 | 31.25057 | 29.85012 | 32528 ft | 400 kts | 302° |
| 2026-05-04 16:38 | 31.28325 | 29.79776 | 33173 ft | 396 kts | 302° |
| 2026-05-04 16:39 | 31.33129 | 29.72058 | 34080 ft | 389 kts | 302° |
| 2026-05-04 16:39 | 31.36302 | 29.66949 | 34112 ft | 387 kts | 302° |
| 2026-05-04 16:40 | 31.42629 | 29.56753 | 34111 ft | 386 kts | 302° |
| 2026-05-04 16:41 | 31.50493 | 29.44049 | 34118 ft | 384 kts | 302° |
| 2026-05-04 16:43 | 31.58322 | 29.31351 | 34114 ft | 384 kts | 302° |
| 2026-05-04 16:43 | 31.63017 | 29.23713 | 34118 ft | 384 kts | 302° |
| 2026-05-04 16:45 | 31.72367 | 29.08425 | 34133 ft | 384 kts | 301° |
| 2026-05-04 16:46 | 31.80144 | 28.95657 | 34119 ft | 384 kts | 301° |
| 2026-05-04 16:47 | 31.86371 | 28.85427 | 34118 ft | 384 kts | 301° |
| 2026-05-04 16:48 | 31.92586 | 28.75169 | 34117 ft | 385 kts | 301° |
| 2026-05-04 16:49 | 31.98777 | 28.64930 | 34117 ft | 385 kts | 302° |
| 2026-05-04 16:50 | 32.04983 | 28.54646 | 34114 ft | 385 kts | 302° |
| 2026-05-04 16:51 | 32.09636 | 28.46925 | 34153 ft | 385 kts | 302° |
| 2026-05-04 16:52 | 32.15797 | 28.36645 | 34144 ft | 383 kts | 302° |
| 2026-05-04 16:53 | 32.20409 | 28.28952 | 34136 ft | 382 kts | 302° |
| 2026-05-04 16:54 | 32.26530 | 28.18714 | 34133 ft | 381 kts | 302° |
| 2026-05-04 16:55 | 32.35681 | 28.03338 | 34123 ft | 382 kts | 302° |
| 2026-05-04 16:56 | 32.43331 | 27.90437 | 34113 ft | 383 kts | 302° |
| 2026-05-04 16:57 | 32.47924 | 27.82677 | 34119 ft | 384 kts | 302° |
| 2026-05-04 16:58 | 32.54022 | 27.72328 | 34149 ft | 382 kts | 302° |
| 2026-05-04 17:00 | 32.63127 | 27.56858 | 34140 ft | 380 kts | 302° |
| 2026-05-04 17:01 | 32.70170 | 27.44832 | 34131 ft | 380 kts | 302° |
| 2026-05-04 17:02 | 32.76199 | 27.34503 | 34130 ft | 380 kts | 302° |
| 2026-05-04 17:03 | 32.80715 | 27.26748 | 34132 ft | 380 kts | 302° |
| 2026-05-04 17:03 | 32.85224 | 27.18982 | 34133 ft | 380 kts | 302° |
| 2026-05-04 17:04 | 32.91213 | 27.08613 | 34126 ft | 380 kts | 302° |
| 2026-05-04 17:05 | 32.97230 | 26.98205 | 34133 ft | 380 kts | 303° |
| 2026-05-04 17:06 | 33.01718 | 26.90403 | 34135 ft | 380 kts | 302° |
| 2026-05-04 17:07 | 33.05690 | 26.83456 | 34128 ft | 381 kts | 303° |
| 2026-05-04 17:07 | 33.09182 | 26.77361 | 34127 ft | 381 kts | 303° |
| 2026-05-04 17:08 | 33.13660 | 26.69526 | 34129 ft | 381 kts | 303° |
| 2026-05-04 17:09 | 33.16639 | 26.64287 | 34136 ft | 381 kts | 303° |
| 2026-05-04 17:09 | 33.19623 | 26.59049 | 34137 ft | 381 kts | 303° |
| 2026-05-04 17:10 | 33.27074 | 26.45944 | 34146 ft | 381 kts | 303° |
| 2026-05-04 17:11 | 33.30043 | 26.40700 | 34167 ft | 381 kts | 303° |
| 2026-05-04 17:12 | 33.34494 | 26.32840 | 34159 ft | 380 kts | 303° |
| 2026-05-04 17:13 | 33.41876 | 26.19757 | 34152 ft | 379 kts | 303° |
| 2026-05-04 17:14 | 33.47761 | 26.09279 | 34147 ft | 379 kts | 303° |
| 2026-05-04 17:15 | 33.52164 | 26.01422 | 34152 ft | 379 kts | 303° |
| 2026-05-04 17:16 | 33.58036 | 25.90924 | 34126 ft | 379 kts | 303° |
| 2026-05-04 17:17 | 33.63919 | 25.80392 | 34136 ft | 380 kts | 303° |
| 2026-05-04 17:18 | 33.69787 | 25.69818 | 34187 ft | 380 kts | 303° |
| 2026-05-04 17:19 | 33.75638 | 25.59272 | 34157 ft | 379 kts | 304° |
| 2026-05-04 17:20 | 33.81471 | 25.48735 | 34157 ft | 378 kts | 304° |
| 2026-05-04 17:20 | 33.85839 | 25.40814 | 34154 ft | 378 kts | 304° |
| 2026-05-04 17:21 | 33.91648 | 25.30255 | 34144 ft | 378 kts | 304° |
| 2026-05-04 17:22 | 33.94550 | 25.24971 | 34142 ft | 378 kts | 304° |
| 2026-05-04 17:23 | 34.00188 | 25.14263 | 34147 ft | 380 kts | 295° |
| 2026-05-04 17:24 | 34.02929 | 25.05269 | 34151 ft | 381 kts | 292° |
| 2026-05-04 17:25 | 34.06529 | 24.93257 | 34130 ft | 383 kts | 292° |
| 2026-05-04 17:26 | 34.10161 | 24.81153 | 34139 ft | 384 kts | 292° |
| 2026-05-04 17:27 | 34.14667 | 24.65978 | 34153 ft | 385 kts | 292° |
| 2026-05-04 17:28 | 34.18278 | 24.53809 | 34155 ft | 385 kts | 292° |
| 2026-05-04 17:29 | 34.23660 | 24.35546 | 34173 ft | 384 kts | 293° |
| 2026-05-04 17:31 | 34.28113 | 24.20328 | 34167 ft | 384 kts | 293° |
| 2026-05-04 17:32 | 34.32548 | 24.05095 | 34139 ft | 384 kts | 292° |
| 2026-05-04 17:33 | 34.36096 | 23.92865 | 34153 ft | 386 kts | 293° |
| 2026-05-04 17:34 | 34.39647 | 23.80598 | 34161 ft | 386 kts | 292° |
| 2026-05-04 17:35 | 34.44063 | 23.65194 | 34139 ft | 388 kts | 292° |
| 2026-05-04 17:36 | 34.45538 | 23.60056 | 34148 ft | 389 kts | 292° |
| 2026-05-04 17:36 | 34.47323 | 23.53812 | 34153 ft | 390 kts | 292° |
| 2026-05-04 17:37 | 34.49093 | 23.47601 | 34159 ft | 390 kts | 292° |
| 2026-05-04 17:37 | 34.50859 | 23.41385 | 34147 ft | 390 kts | 292° |
| 2026-05-04 17:38 | 34.52616 | 23.35201 | 34156 ft | 391 kts | 292° |
| 2026-05-04 17:38 | 34.54383 | 23.28962 | 34156 ft | 391 kts | 292° |
| 2026-05-04 17:39 | 34.57026 | 23.19583 | 34168 ft | 392 kts | 292° |
| 2026-05-04 17:39 | 34.58796 | 23.13327 | 34171 ft | 392 kts | 292° |
| 2026-05-04 17:40 | 34.60562 | 23.07064 | 34160 ft | 392 kts | 292° |
| 2026-05-04 17:40 | 34.62312 | 23.00785 | 34158 ft | 393 kts | 292° |
| 2026-05-04 17:41 | 34.63929 | 22.94456 | 34167 ft | 394 kts | 289° |
| 2026-05-04 17:41 | 34.65391 | 22.88035 | 34166 ft | 395 kts | 289° |
| 2026-05-04 17:42 | 34.66855 | 22.81559 | 34169 ft | 395 kts | 289° |
| 2026-05-04 17:42 | 34.68339 | 22.75174 | 34155 ft | 395 kts | 289° |
| 2026-05-04 17:43 | 34.69851 | 22.68739 | 34158 ft | 396 kts | 289° |
| 2026-05-04 17:43 | 34.71354 | 22.62294 | 34160 ft | 396 kts | 289° |
| 2026-05-04 17:44 | 34.72850 | 22.55844 | 34162 ft | 397 kts | 289° |
| 2026-05-04 17:44 | 34.74343 | 22.49382 | 34169 ft | 397 kts | 289° |
| 2026-05-04 17:45 | 34.75841 | 22.42877 | 34156 ft | 397 kts | 289° |
| 2026-05-04 17:45 | 34.77322 | 22.36441 | 34158 ft | 398 kts | 289° |
| 2026-05-04 17:46 | 34.78824 | 22.29921 | 34162 ft | 398 kts | 289° |
| 2026-05-04 17:46 | 34.80300 | 22.23469 | 34165 ft | 399 kts | 289° |
| 2026-05-04 17:47 | 34.81780 | 22.16968 | 34171 ft | 399 kts | 289° |
| 2026-05-04 17:47 | 34.83263 | 22.10458 | 34155 ft | 399 kts | 289° |
| 2026-05-04 17:48 | 34.84749 | 22.03946 | 34161 ft | 399 kts | 289° |
| 2026-05-04 17:48 | 34.86223 | 21.97427 | 34176 ft | 400 kts | 289° |
| 2026-05-04 17:49 | 34.87697 | 21.90893 | 34173 ft | 400 kts | 289° |
| 2026-05-04 17:49 | 34.89165 | 21.84364 | 34179 ft | 400 kts | 289° |
| 2026-05-04 17:50 | 34.90634 | 21.77834 | 34163 ft | 400 kts | 289° |
| 2026-05-04 17:50 | 34.92097 | 21.71295 | 34165 ft | 400 kts | 289° |
| 2026-05-04 17:51 | 34.93555 | 21.64760 | 34170 ft | 399 kts | 289° |
| 2026-05-04 17:51 | 34.95014 | 21.58228 | 34177 ft | 399 kts | 289° |
| 2026-05-04 17:52 | 34.96469 | 21.51701 | 34182 ft | 399 kts | 289° |
| 2026-05-04 17:52 | 34.97915 | 21.45166 | 34183 ft | 399 kts | 289° |
| 2026-05-04 17:53 | 34.99354 | 21.38627 | 34184 ft | 399 kts | 289° |
| 2026-05-04 17:53 | 35.00795 | 21.32085 | 34185 ft | 399 kts | 289° |
| 2026-05-04 17:54 | 35.02232 | 21.25536 | 34188 ft | 399 kts | 288° |
| 2026-05-04 17:54 | 35.03665 | 21.19000 | 34185 ft | 399 kts | 289° |
| 2026-05-04 17:55 | 35.05105 | 21.12455 | 34172 ft | 399 kts | 289° |
| 2026-05-04 17:55 | 35.06522 | 21.05911 | 34184 ft | 399 kts | 289° |
| 2026-05-04 17:56 | 35.07935 | 20.99359 | 34185 ft | 398 kts | 289° |
| 2026-05-04 17:56 | 35.09354 | 20.92821 | 34186 ft | 398 kts | 289° |
| 2026-05-04 17:57 | 35.10766 | 20.86264 | 34187 ft | 398 kts | 289° |
| 2026-05-04 17:57 | 35.12177 | 20.79733 | 34171 ft | 398 kts | 289° |
| 2026-05-04 17:58 | 35.13585 | 20.73204 | 34181 ft | 397 kts | 290° |
| 2026-05-04 17:58 | 35.14978 | 20.66668 | 34190 ft | 397 kts | 289° |
| 2026-05-04 17:59 | 35.16364 | 20.60151 | 34189 ft | 396 kts | 290° |
| 2026-05-04 18:00 | 35.18452 | 20.50372 | 34193 ft | 396 kts | 290° |
| 2026-05-04 18:00 | 35.19832 | 20.43858 | 34173 ft | 396 kts | 290° |
| 2026-05-04 18:01 | 35.21216 | 20.37301 | 34186 ft | 395 kts | 290° |
| 2026-05-04 18:01 | 35.22582 | 20.30800 | 34204 ft | 395 kts | 290° |
| 2026-05-04 18:02 | 35.24630 | 20.21042 | 34192 ft | 394 kts | 290° |
| 2026-05-04 18:02 | 35.25993 | 20.14545 | 34195 ft | 394 kts | 290° |
| 2026-05-04 18:03 | 35.27340 | 20.08082 | 34181 ft | 394 kts | 290° |
| 2026-05-04 18:03 | 35.28689 | 20.01573 | 34184 ft | 394 kts | 290° |
| 2026-05-04 18:04 | 35.30036 | 19.95055 | 34186 ft | 394 kts | 290° |
| 2026-05-04 18:05 | 35.32058 | 19.85295 | 34212 ft | 395 kts | 290° |
| 2026-05-04 18:05 | 35.33403 | 19.78775 | 34176 ft | 394 kts | 290° |
| 2026-05-04 18:06 | 35.35410 | 19.69012 | 34183 ft | 394 kts | 290° |
| 2026-05-04 18:06 | 35.36740 | 19.62490 | 34189 ft | 394 kts | 290° |
| 2026-05-04 18:07 | 35.38064 | 19.55964 | 34192 ft | 394 kts | 290° |
| 2026-05-04 18:07 | 35.39388 | 19.49444 | 34193 ft | 394 kts | 290° |
| 2026-05-04 18:08 | 35.40705 | 19.42916 | 34180 ft | 394 kts | 290° |
| 2026-05-04 18:08 | 35.42028 | 19.36376 | 34184 ft | 395 kts | 290° |
| 2026-05-04 18:09 | 35.44653 | 19.23314 | 34193 ft | 394 kts | 290° |
| 2026-05-04 18:10 | 35.45965 | 19.16777 | 34188 ft | 395 kts | 290° |
| 2026-05-04 18:10 | 35.47044 | 19.11330 | 34164 ft | 395 kts | 289° |
| 2026-05-04 18:11 | 35.48338 | 19.04796 | 34174 ft | 395 kts | 289° |
| 2026-05-04 18:11 | 35.49644 | 18.98241 | 34179 ft | 395 kts | 289° |
| 2026-05-04 18:12 | 35.50945 | 18.91682 | 34186 ft | 395 kts | 289° |
| 2026-05-04 18:12 | 35.52242 | 18.85115 | 34190 ft | 395 kts | 289° |
| 2026-05-04 18:13 | 35.53529 | 18.78556 | 34192 ft | 396 kts | 289° |
| 2026-05-04 18:14 | 35.55460 | 18.68697 | 34173 ft | 396 kts | 289° |
| 2026-05-04 18:14 | 35.56746 | 18.62117 | 34179 ft | 396 kts | 289° |
| 2026-05-04 18:15 | 35.59307 | 18.48935 | 34188 ft | 396 kts | 289° |
| 2026-05-04 18:16 | 35.60581 | 18.42338 | 34169 ft | 397 kts | 288° |
| 2026-05-04 18:16 | 35.61850 | 18.35741 | 34174 ft | 396 kts | 288° |
| 2026-05-04 18:17 | 35.63708 | 18.25822 | 34184 ft | 397 kts | 287° |
| 2026-05-04 18:18 | 35.65314 | 18.15830 | 34193 ft | 398 kts | 286° |
| 2026-05-04 18:18 | 35.66363 | 18.09144 | 34194 ft | 398 kts | 286° |
| 2026-05-04 18:19 | 35.67971 | 17.99148 | 34192 ft | 397 kts | 286° |
| 2026-05-04 18:19 | 35.69039 | 17.92466 | 34192 ft | 398 kts | 286° |
| 2026-05-04 18:20 | 35.70106 | 17.85796 | 34193 ft | 398 kts | 286° |
| 2026-05-04 18:20 | 35.71166 | 17.79114 | 34194 ft | 398 kts | 286° |
| 2026-05-04 18:21 | 35.72212 | 17.72438 | 34177 ft | 397 kts | 285° |
| 2026-05-04 18:21 | 35.73269 | 17.65756 | 34184 ft | 397 kts | 285° |
| 2026-05-04 18:22 | 35.74318 | 17.59081 | 34185 ft | 397 kts | 285° |
| 2026-05-04 18:22 | 35.75359 | 17.52397 | 34188 ft | 397 kts | 285° |
| 2026-05-04 18:23 | 35.76410 | 17.45710 | 34189 ft | 397 kts | 285° |
| 2026-05-04 18:23 | 35.77446 | 17.39020 | 34164 ft | 397 kts | 285° |
| 2026-05-04 18:24 | 35.78473 | 17.32336 | 34179 ft | 397 kts | 284° |
| 2026-05-04 18:24 | 35.79505 | 17.25647 | 34185 ft | 397 kts | 284° |
| 2026-05-04 18:25 | 35.80529 | 17.18960 | 34189 ft | 397 kts | 284° |
| 2026-05-04 18:25 | 35.81541 | 17.12322 | 34200 ft | 397 kts | 284° |
| 2026-05-04 18:26 | 35.82558 | 17.05631 | 34196 ft | 397 kts | 284° |
| 2026-05-04 18:26 | 35.83581 | 16.98913 | 34192 ft | 397 kts | 284° |
| 2026-05-04 18:27 | 35.84589 | 16.92219 | 34182 ft | 397 kts | 284° |
| 2026-05-04 18:27 | 35.85592 | 16.85539 | 34183 ft | 397 kts | 284° |
| 2026-05-04 18:28 | 35.86597 | 16.78857 | 34185 ft | 397 kts | 284° |
| 2026-05-04 18:28 | 35.87598 | 16.72160 | 34179 ft | 397 kts | 284° |
| 2026-05-04 18:29 | 35.88590 | 16.65474 | 34178 ft | 397 kts | 283° |
| 2026-05-04 18:29 | 35.89580 | 16.58767 | 34168 ft | 397 kts | 283° |
| 2026-05-04 18:30 | 35.91062 | 16.48713 | 34178 ft | 397 kts | 283° |
| 2026-05-04 18:31 | 35.92039 | 16.42006 | 34182 ft | 398 kts | 283° |
| 2026-05-04 18:31 | 35.93019 | 16.35289 | 34183 ft | 398 kts | 283° |
| 2026-05-04 18:32 | 35.93993 | 16.28571 | 34169 ft | 398 kts | 283° |
| 2026-05-04 18:32 | 35.94974 | 16.21841 | 34164 ft | 399 kts | 283° |
| 2026-05-04 18:33 | 35.95952 | 16.15078 | 34167 ft | 400 kts | 283° |
| 2026-05-04 18:33 | 35.96919 | 16.08324 | 34165 ft | 400 kts | 283° |
| 2026-05-04 18:34 | 35.97882 | 16.01558 | 34174 ft | 400 kts | 283° |
| 2026-05-04 18:34 | 35.98839 | 15.94791 | 34161 ft | 400 kts | 282° |
| 2026-05-04 18:35 | 35.99807 | 15.88010 | 34161 ft | 401 kts | 282° |
| 2026-05-04 18:35 | 36.00765 | 15.81266 | 34166 ft | 401 kts | 282° |
| 2026-05-04 18:36 | 36.01719 | 15.74424 | 34168 ft | 401 kts | 282° |
| 2026-05-04 18:36 | 36.02666 | 15.67627 | 34171 ft | 402 kts | 282° |
| 2026-05-04 18:37 | 36.03604 | 15.60871 | 34161 ft | 402 kts | 282° |
| 2026-05-04 18:37 | 36.04550 | 15.54049 | 34161 ft | 403 kts | 282° |
| 2026-05-04 18:38 | 36.05492 | 15.47224 | 34163 ft | 403 kts | 281° |
| 2026-05-04 18:38 | 36.06437 | 15.40384 | 34166 ft | 404 kts | 281° |
| 2026-05-04 18:39 | 36.07376 | 15.33543 | 34166 ft | 404 kts | 281° |
| 2026-05-04 18:39 | 36.08310 | 15.26686 | 34151 ft | 404 kts | 281° |
| 2026-05-04 18:40 | 36.09237 | 15.19826 | 34155 ft | 405 kts | 281° |
| 2026-05-04 18:40 | 36.10168 | 15.12953 | 34158 ft | 405 kts | 281° |
| 2026-05-04 18:41 | 36.11097 | 15.06074 | 34158 ft | 406 kts | 281° |
| 2026-05-04 18:41 | 36.12023 | 14.99181 | 34161 ft | 406 kts | 281° |
| 2026-05-04 18:42 | 36.12942 | 14.92280 | 34165 ft | 406 kts | 281° |
| 2026-05-04 18:42 | 36.13856 | 14.85376 | 34162 ft | 406 kts | 281° |
| 2026-05-04 18:43 | 36.14764 | 14.78476 | 34163 ft | 406 kts | 281° |
| 2026-05-04 18:43 | 36.15669 | 14.71568 | 34166 ft | 407 kts | 281° |
| 2026-05-04 18:44 | 36.16433 | 14.65786 | 34168 ft | 407 kts | 281° |
| 2026-05-04 18:44 | 36.17484 | 14.57759 | 34169 ft | 407 kts | 281° |
| 2026-05-04 18:45 | 36.18237 | 14.51966 | 34174 ft | 407 kts | 281° |
| 2026-05-04 18:45 | 36.19130 | 14.45049 | 34170 ft | 407 kts | 281° |
| 2026-05-04 18:46 | 36.20020 | 14.38149 | 34168 ft | 407 kts | 281° |
| 2026-05-04 18:46 | 36.20895 | 14.31262 | 34166 ft | 406 kts | 280° |
| 2026-05-04 18:47 | 36.21768 | 14.24350 | 34163 ft | 406 kts | 280° |
| 2026-05-04 18:47 | 36.22646 | 14.17434 | 34144 ft | 407 kts | 280° |
| 2026-05-04 18:48 | 36.23521 | 14.10503 | 34145 ft | 408 kts | 280° |
| 2026-05-04 18:48 | 36.24398 | 14.03500 | 34144 ft | 409 kts | 280° |
| 2026-05-04 18:49 | 36.25269 | 13.96544 | 34147 ft | 409 kts | 280° |
| 2026-05-04 18:49 | 36.26143 | 13.89574 | 34148 ft | 409 kts | 280° |
| 2026-05-04 18:50 | 36.27011 | 13.82586 | 34142 ft | 409 kts | 279° |
| 2026-05-04 18:50 | 36.27861 | 13.75651 | 34138 ft | 410 kts | 279° |
| 2026-05-04 18:51 | 36.28712 | 13.68658 | 34145 ft | 410 kts | 279° |
| 2026-05-04 18:51 | 36.29565 | 13.61668 | 34142 ft | 411 kts | 279° |
| 2026-05-04 18:52 | 36.30419 | 13.54659 | 34141 ft | 411 kts | 279° |
| 2026-05-04 18:52 | 36.31267 | 13.47646 | 34138 ft | 411 kts | 279° |
| 2026-05-04 18:53 | 36.32107 | 13.40629 | 34138 ft | 411 kts | 279° |
| 2026-05-04 18:53 | 36.32940 | 13.33623 | 34134 ft | 411 kts | 279° |
| 2026-05-04 18:54 | 36.33772 | 13.26604 | 34139 ft | 411 kts | 279° |
| 2026-05-04 18:54 | 36.34604 | 13.19591 | 34138 ft | 411 kts | 279° |
| 2026-05-04 18:55 | 36.35431 | 13.12583 | 34133 ft | 411 kts | 279° |
| 2026-05-04 18:55 | 36.36671 | 13.02040 | 34142 ft | 411 kts | 279° |
| 2026-05-04 18:56 | 36.37484 | 12.95041 | 34135 ft | 410 kts | 279° |
| 2026-05-04 18:56 | 36.38289 | 12.88031 | 34128 ft | 410 kts | 279° |
| 2026-05-04 18:57 | 36.39095 | 12.81023 | 34128 ft | 410 kts | 279° |
| 2026-05-04 18:57 | 36.39892 | 12.74019 | 34133 ft | 410 kts | 278° |
| 2026-05-04 18:58 | 36.40690 | 12.67004 | 34131 ft | 410 kts | 278° |
| 2026-05-04 18:58 | 36.41486 | 12.60001 | 34130 ft | 409 kts | 278° |
| 2026-05-04 18:59 | 36.42276 | 12.52993 | 34129 ft | 409 kts | 278° |
| 2026-05-04 18:59 | 36.43058 | 12.45993 | 34124 ft | 409 kts | 278° |
| 2026-05-04 19:00 | 36.43835 | 12.39008 | 34127 ft | 409 kts | 278° |
| 2026-05-04 19:00 | 36.44612 | 12.32003 | 34123 ft | 409 kts | 278° |
| 2026-05-04 19:01 | 36.45391 | 12.24995 | 34121 ft | 410 kts | 278° |
| 2026-05-04 19:01 | 36.46152 | 12.17981 | 34111 ft | 410 kts | 278° |
| 2026-05-04 19:02 | 36.46911 | 12.10958 | 34110 ft | 410 kts | 278° |
| 2026-05-04 19:02 | 36.47672 | 12.03985 | 34110 ft | 409 kts | 278° |
| 2026-05-04 19:03 | 36.48437 | 11.96933 | 34110 ft | 409 kts | 277° |
| 2026-05-04 19:03 | 36.49179 | 11.89959 | 34115 ft | 409 kts | 277° |
| 2026-05-04 19:04 | 36.50048 | 11.82921 | 34100 ft | 409 kts | 284° |
| 2026-05-04 19:04 | 36.52182 | 11.76365 | 34099 ft | 410 kts | 293° |
| 2026-05-04 19:05 | 36.54584 | 11.69963 | 34091 ft | 410 kts | 293° |
| 2026-05-04 19:05 | 36.56998 | 11.63488 | 34106 ft | 410 kts | 293° |
| 2026-05-04 19:06 | 36.59375 | 11.57078 | 34103 ft | 410 kts | 293° |
| 2026-05-04 19:06 | 36.61631 | 11.50581 | 34097 ft | 408 kts | 285° |
| 2026-05-04 19:07 | 36.62557 | 11.43597 | 34085 ft | 407 kts | 276° |
| 2026-05-04 19:07 | 36.63151 | 11.36635 | 34094 ft | 407 kts | 276° |
| 2026-05-04 19:08 | 36.63758 | 11.29616 | 34104 ft | 407 kts | 276° |
| 2026-05-04 19:08 | 36.64364 | 11.22594 | 34101 ft | 407 kts | 276° |
| 2026-05-04 19:09 | 36.64964 | 11.15539 | 34104 ft | 407 kts | 276° |
| 2026-05-04 19:09 | 36.65552 | 11.08554 | 34102 ft | 407 kts | 275° |
| 2026-05-04 19:10 | 36.66132 | 11.01550 | 34104 ft | 407 kts | 275° |
| 2026-05-04 19:10 | 36.66714 | 10.94532 | 34098 ft | 407 kts | 275° |
| 2026-05-04 19:11 | 36.67293 | 10.87548 | 34099 ft | 407 kts | 275° |
| 2026-05-04 19:11 | 36.67867 | 10.80530 | 34104 ft | 407 kts | 275° |
| 2026-05-04 19:12 | 36.68731 | 10.70004 | 34096 ft | 407 kts | 275° |
| 2026-05-04 19:13 | 36.69301 | 10.62984 | 34087 ft | 407 kts | 275° |
| 2026-05-04 19:13 | 36.69856 | 10.55978 | 34093 ft | 407 kts | 275° |
| 2026-05-04 19:14 | 36.70403 | 10.48963 | 34079 ft | 406 kts | 275° |
| 2026-05-04 19:14 | 36.70946 | 10.41949 | 34070 ft | 406 kts | 275° |
| 2026-05-04 19:15 | 36.71484 | 10.34953 | 34072 ft | 406 kts | 275° |
| 2026-05-04 19:15 | 36.72027 | 10.27947 | 34058 ft | 406 kts | 275° |
| 2026-05-04 19:16 | 36.72571 | 10.20937 | 34062 ft | 406 kts | 275° |
| 2026-05-04 19:16 | 36.73099 | 10.13940 | 34058 ft | 406 kts | 275° |
| 2026-05-04 19:17 | 36.73630 | 10.06878 | 34056 ft | 406 kts | 275° |
| 2026-05-04 19:17 | 36.74153 | 9.99879 | 34114 ft | 408 kts | 275° |
| 2026-05-04 19:17 | 36.74415 | 9.96349 | 34368 ft | 408 kts | 275° |
| 2026-05-04 19:18 | 36.74677 | 9.92831 | 34673 ft | 407 kts | 275° |
| 2026-05-04 19:18 | 36.74937 | 9.89330 | 34972 ft | 405 kts | 275° |
| 2026-05-04 19:18 | 36.75195 | 9.85833 | 35263 ft | 404 kts | 275° |
| 2026-05-04 19:18 | 36.75364 | 9.83528 | 35454 ft | 403 kts | 275° |
| 2026-05-04 19:19 | 36.75617 | 9.80053 | 35753 ft | 401 kts | 275° |
| 2026-05-04 19:19 | 36.75869 | 9.76595 | 35990 ft | 400 kts | 275° |
| 2026-05-04 19:19 | 36.76118 | 9.73138 | 36050 ft | 399 kts | 275° |
| 2026-05-04 19:20 | 36.76612 | 9.66263 | 36045 ft | 397 kts | 275° |
| 2026-05-04 19:20 | 36.77104 | 9.59397 | 36045 ft | 397 kts | 274° |
| 2026-05-04 19:21 | 36.77590 | 9.52522 | 36045 ft | 397 kts | 275° |
| 2026-05-04 19:21 | 36.78074 | 9.45666 | 36043 ft | 397 kts | 274° |
| 2026-05-04 19:22 | 36.78551 | 9.38793 | 36047 ft | 397 kts | 274° |
| 2026-05-04 19:22 | 36.79028 | 9.31943 | 36049 ft | 396 kts | 274° |
| 2026-05-04 19:23 | 36.79499 | 9.25099 | 36052 ft | 396 kts | 274° |
| 2026-05-04 19:23 | 36.79965 | 9.18241 | 36058 ft | 396 kts | 274° |
| 2026-05-04 19:24 | 36.80423 | 9.11393 | 36055 ft | 396 kts | 274° |
| 2026-05-04 19:24 | 36.80879 | 9.04511 | 36064 ft | 396 kts | 274° |
| 2026-05-04 19:25 | 36.81335 | 8.97666 | 36068 ft | 395 kts | 274° |
| 2026-05-04 19:25 | 36.81783 | 8.90887 | 36067 ft | 394 kts | 274° |
| 2026-05-04 19:26 | 36.82230 | 8.84064 | 36066 ft | 394 kts | 274° |
| 2026-05-04 19:26 | 36.82666 | 8.77243 | 36064 ft | 394 kts | 274° |
| 2026-05-04 19:27 | 36.83101 | 8.70431 | 36065 ft | 394 kts | 274° |
| 2026-05-04 19:27 | 36.83501 | 8.63612 | 36067 ft | 393 kts | 272° |
| 2026-05-04 19:28 | 36.83578 | 8.56751 | 36068 ft | 393 kts | 269° |
| 2026-05-04 19:28 | 36.83491 | 8.49976 | 36066 ft | 392 kts | 269° |
| 2026-05-04 19:29 | 36.83430 | 8.43168 | 36069 ft | 392 kts | 270° |
| 2026-05-04 19:29 | 36.83422 | 8.36364 | 36065 ft | 392 kts | 270° |
| 2026-05-04 19:30 | 36.83423 | 8.29571 | 36075 ft | 391 kts | 270° |
| 2026-05-04 19:30 | 36.83416 | 8.22774 | 36077 ft | 390 kts | 270° |
| 2026-05-04 19:31 | 36.83396 | 8.16004 | 36074 ft | 390 kts | 270° |
| 2026-05-04 19:31 | 36.83373 | 8.09238 | 36074 ft | 390 kts | 270° |
| 2026-05-04 19:32 | 36.83349 | 8.02476 | 36068 ft | 389 kts | 270° |
| 2026-05-04 19:32 | 36.83321 | 7.95727 | 36081 ft | 389 kts | 270° |
| 2026-05-04 19:33 | 36.83290 | 7.88968 | 36078 ft | 388 kts | 270° |
| 2026-05-04 19:33 | 36.83439 | 7.82248 | 36078 ft | 387 kts | 278° |
| 2026-05-04 19:34 | 36.85093 | 7.75844 | 36078 ft | 390 kts | 289° |
| 2026-05-04 19:34 | 36.87135 | 7.69579 | 36068 ft | 390 kts | 289° |
| 2026-05-04 19:35 | 36.89167 | 7.63311 | 36066 ft | 390 kts | 289° |
| 2026-05-04 19:35 | 36.91203 | 7.57032 | 36075 ft | 390 kts | 289° |
| 2026-05-04 19:36 | 36.93240 | 7.50760 | 36065 ft | 389 kts | 289° |
| 2026-05-04 19:36 | 36.95271 | 7.44502 | 36065 ft | 388 kts | 289° |
| 2026-05-04 19:37 | 36.97289 | 7.38250 | 36065 ft | 388 kts | 289° |
| 2026-05-04 19:37 | 36.99306 | 7.31986 | 36062 ft | 388 kts | 289° |
| 2026-05-04 19:38 | 37.01316 | 7.25732 | 36071 ft | 388 kts | 289° |
| 2026-05-04 19:38 | 37.03325 | 7.19476 | 36068 ft | 387 kts | 289° |
| 2026-05-04 19:39 | 37.05330 | 7.13215 | 36061 ft | 387 kts | 289° |
| 2026-05-04 19:39 | 37.07330 | 7.06955 | 36057 ft | 387 kts | 289° |
| 2026-05-04 19:40 | 37.09323 | 7.00699 | 36054 ft | 387 kts | 289° |
| 2026-05-04 19:40 | 37.11311 | 6.94436 | 36053 ft | 387 kts | 288° |
| 2026-05-04 19:41 | 37.13298 | 6.88169 | 36050 ft | 387 kts | 288° |
| 2026-05-04 19:41 | 37.15280 | 6.81908 | 36057 ft | 387 kts | 288° |
| 2026-05-04 19:42 | 37.17261 | 6.75649 | 36055 ft | 386 kts | 288° |
| 2026-05-04 19:42 | 37.19237 | 6.69373 | 36052 ft | 386 kts | 288° |
| 2026-05-04 19:43 | 37.21200 | 6.63117 | 36051 ft | 386 kts | 288° |
| 2026-05-04 19:43 | 37.23171 | 6.56837 | 36049 ft | 386 kts | 288° |
| 2026-05-04 19:44 | 37.25141 | 6.50571 | 36037 ft | 386 kts | 288° |
| 2026-05-04 19:44 | 37.27102 | 6.44297 | 36047 ft | 386 kts | 288° |
| 2026-05-04 19:45 | 37.29057 | 6.38009 | 36032 ft | 386 kts | 288° |
| 2026-05-04 19:45 | 37.31009 | 6.31713 | 36051 ft | 387 kts | 288° |
| 2026-05-04 19:46 | 37.32964 | 6.25421 | 36047 ft | 386 kts | 288° |
| 2026-05-04 19:46 | 37.34913 | 6.19133 | 36035 ft | 386 kts | 288° |
| 2026-05-04 19:47 | 37.36861 | 6.12847 | 36033 ft | 386 kts | 288° |
| 2026-05-04 19:47 | 37.38807 | 6.06543 | 36027 ft | 386 kts | 287° |
| 2026-05-04 19:48 | 37.40745 | 6.00236 | 36017 ft | 386 kts | 287° |
| 2026-05-04 19:48 | 37.42685 | 5.93928 | 36014 ft | 387 kts | 287° |
| 2026-05-04 19:49 | 37.44617 | 5.87612 | 36007 ft | 387 kts | 287° |
| 2026-05-04 19:49 | 37.46542 | 5.81296 | 36006 ft | 387 kts | 287° |
| 2026-05-04 19:50 | 37.48473 | 5.74960 | 36001 ft | 387 kts | 287° |
| 2026-05-04 19:50 | 37.50399 | 5.68631 | 36015 ft | 387 kts | 287° |
| 2026-05-04 19:51 | 37.52325 | 5.62306 | 36004 ft | 387 kts | 286° |
| 2026-05-04 19:51 | 37.54242 | 5.55959 | 36000 ft | 388 kts | 286° |
| 2026-05-04 19:52 | 37.56166 | 5.49598 | 35997 ft | 388 kts | 286° |
| 2026-05-04 19:52 | 37.58087 | 5.43240 | 35994 ft | 388 kts | 286° |
| 2026-05-04 19:53 | 37.59996 | 5.36877 | 36025 ft | 388 kts | 286° |
| 2026-05-04 19:53 | 37.61909 | 5.30493 | 36023 ft | 389 kts | 286° |
| 2026-05-04 19:54 | 37.63820 | 5.24117 | 36021 ft | 389 kts | 287° |
| 2026-05-04 19:54 | 37.65736 | 5.17739 | 36026 ft | 388 kts | 286° |
| 2026-05-04 19:55 | 37.67319 | 5.12439 | 36023 ft | 388 kts | 286° |
| 2026-05-04 19:55 | 37.69217 | 5.06059 | 36019 ft | 388 kts | 286° |
| 2026-05-04 19:56 | 37.71117 | 4.99671 | 36025 ft | 388 kts | 287° |
| 2026-05-04 19:56 | 37.73123 | 4.93325 | 36043 ft | 389 kts | 288° |
| 2026-05-04 19:57 | 37.75227 | 4.87023 | 36048 ft | 389 kts | 288° |
| 2026-05-04 19:57 | 37.77324 | 4.80720 | 36046 ft | 389 kts | 288° |
| 2026-05-04 19:58 | 37.79383 | 4.74406 | 36043 ft | 388 kts | 287° |
| 2026-05-04 19:58 | 37.81431 | 4.68069 | 36043 ft | 388 kts | 287° |
| 2026-05-04 19:59 | 37.83477 | 4.61748 | 36040 ft | 388 kts | 287° |
| 2026-05-04 19:59 | 37.85520 | 4.55422 | 36052 ft | 388 kts | 287° |
| 2026-05-04 20:00 | 37.87561 | 4.49100 | 36065 ft | 388 kts | 286° |
| 2026-05-04 20:00 | 37.89592 | 4.42781 | 36058 ft | 388 kts | 286° |
| 2026-05-04 20:01 | 37.91624 | 4.36423 | 36048 ft | 389 kts | 286° |
| 2026-05-04 20:01 | 37.93643 | 4.30083 | 36042 ft | 389 kts | 286° |
| 2026-05-04 20:02 | 37.95675 | 4.23724 | 36041 ft | 389 kts | 286° |
| 2026-05-04 20:02 | 37.97702 | 4.17371 | 36040 ft | 389 kts | 285° |
| 2026-05-04 20:03 | 37.99743 | 4.10960 | 36030 ft | 390 kts | 285° |
| 2026-05-04 20:03 | 38.01771 | 4.04574 | 36028 ft | 390 kts | 285° |
| 2026-05-04 20:04 | 38.03786 | 3.98217 | 36046 ft | 392 kts | 285° |
| 2026-05-04 20:04 | 38.04802 | 3.95002 | 36271 ft | 392 kts | 285° |
| 2026-05-04 20:04 | 38.05798 | 3.91849 | 36516 ft | 391 kts | 285° |
| 2026-05-04 20:04 | 38.06808 | 3.88649 | 36766 ft | 390 kts | 285° |
| 2026-05-04 20:05 | 38.07819 | 3.85444 | 37026 ft | 389 kts | 286° |
| 2026-05-04 20:05 | 38.08822 | 3.82260 | 37271 ft | 388 kts | 286° |
| 2026-05-04 20:05 | 38.09819 | 3.79086 | 37510 ft | 387 kts | 285° |
| 2026-05-04 20:05 | 38.10813 | 3.75912 | 37664 ft | 388 kts | 285° |
| 2026-05-04 20:06 | 38.11817 | 3.72713 | 37842 ft | 389 kts | 286° |
| 2026-05-04 20:06 | 38.12817 | 3.69527 | 38001 ft | 389 kts | 286° |
| 2026-05-04 20:06 | 38.13821 | 3.66333 | 38050 ft | 390 kts | 286° |
| 2026-05-04 20:07 | 38.15832 | 3.59938 | 38025 ft | 390 kts | 285° |
| 2026-05-04 20:07 | 38.17830 | 3.53518 | 38033 ft | 390 kts | 285° |
| 2026-05-04 20:08 | 38.19823 | 3.47093 | 38035 ft | 390 kts | 285° |
| 2026-05-04 20:08 | 38.21816 | 3.40672 | 38031 ft | 390 kts | 285° |
| 2026-05-04 20:09 | 38.23724 | 3.34227 | 38021 ft | 389 kts | 284° |
| 2026-05-04 20:09 | 38.25598 | 3.27759 | 38019 ft | 390 kts | 284° |
| 2026-05-04 20:10 | 38.27477 | 3.21283 | 38023 ft | 390 kts | 284° |
| 2026-05-04 20:10 | 38.29376 | 3.14819 | 38018 ft | 391 kts | 287° |
| 2026-05-04 20:11 | 38.31731 | 3.08561 | 38016 ft | 394 kts | 289° |
| 2026-05-04 20:11 | 38.34123 | 3.02282 | 38035 ft | 394 kts | 289° |
| 2026-05-04 20:12 | 38.36505 | 2.95999 | 38025 ft | 394 kts | 289° |
| 2026-05-04 20:12 | 38.38890 | 2.89690 | 38015 ft | 394 kts | 289° |
| 2026-05-04 20:13 | 38.41268 | 2.83397 | 38012 ft | 394 kts | 289° |
| 2026-05-04 20:13 | 38.43649 | 2.77097 | 38011 ft | 395 kts | 289° |
| 2026-05-04 20:14 | 38.46026 | 2.70776 | 38008 ft | 395 kts | 289° |
| 2026-05-04 20:14 | 38.48395 | 2.64453 | 38021 ft | 395 kts | 289° |
| 2026-05-04 20:15 | 38.50763 | 2.58125 | 38009 ft | 395 kts | 289° |
| 2026-05-04 20:15 | 38.53128 | 2.51791 | 38006 ft | 395 kts | 289° |
| 2026-05-04 20:16 | 38.55497 | 2.45446 | 38003 ft | 396 kts | 289° |
| 2026-05-04 20:16 | 38.57868 | 2.39092 | 37999 ft | 396 kts | 289° |
| 2026-05-04 20:17 | 38.60232 | 2.32740 | 38000 ft | 396 kts | 289° |
| 2026-05-04 20:17 | 38.62589 | 2.26375 | 38022 ft | 396 kts | 289° |
| 2026-05-04 20:18 | 38.64932 | 2.20045 | 37990 ft | 396 kts | 289° |
| 2026-05-04 20:18 | 38.67301 | 2.13632 | 37973 ft | 396 kts | 289° |
| 2026-05-04 20:19 | 38.69648 | 2.07241 | 37977 ft | 397 kts | 289° |
| 2026-05-04 20:19 | 38.71972 | 2.00882 | 37978 ft | 397 kts | 289° |
| 2026-05-04 20:20 | 38.74322 | 1.94468 | 37977 ft | 397 kts | 289° |
| 2026-05-04 20:20 | 38.76682 | 1.88018 | 38001 ft | 397 kts | 289° |
| 2026-05-04 20:21 | 38.79028 | 1.81598 | 37999 ft | 397 kts | 289° |
| 2026-05-04 20:21 | 38.82521 | 1.72013 | 37996 ft | 396 kts | 289° |
| 2026-05-04 20:22 | 38.84839 | 1.65605 | 37990 ft | 396 kts | 289° |
| 2026-05-04 20:22 | 38.87147 | 1.59231 | 37987 ft | 396 kts | 289° |
| 2026-05-04 20:23 | 38.89465 | 1.52806 | 37990 ft | 397 kts | 289° |
| 2026-05-04 20:23 | 38.91768 | 1.46377 | 37989 ft | 396 kts | 288° |
| 2026-05-04 20:24 | 38.93842 | 1.39831 | 37982 ft | 395 kts | 285° |
| 2026-05-04 20:24 | 38.95769 | 1.33199 | 37980 ft | 396 kts | 285° |
| 2026-05-04 20:25 | 38.97708 | 1.26588 | 37979 ft | 396 kts | 285° |
| 2026-05-04 20:25 | 38.99688 | 1.19966 | 37977 ft | 396 kts | 285° |
| 2026-05-04 20:26 | 39.01674 | 1.13358 | 37993 ft | 396 kts | 286° |
| 2026-05-04 20:26 | 39.03659 | 1.06739 | 37981 ft | 396 kts | 286° |
| 2026-05-04 20:27 | 39.05630 | 1.00119 | 37973 ft | 396 kts | 285° |
| 2026-05-04 20:27 | 39.07596 | 0.93489 | 37969 ft | 396 kts | 285° |
| 2026-05-04 20:28 | 39.09561 | 0.86864 | 37966 ft | 396 kts | 285° |
| 2026-05-04 20:28 | 39.11516 | 0.80234 | 37965 ft | 396 kts | 285° |
| 2026-05-04 20:29 | 39.13477 | 0.73591 | 37953 ft | 397 kts | 286° |
| 2026-05-04 20:29 | 39.15437 | 0.66948 | 37942 ft | 396 kts | 286° |
| 2026-05-04 20:30 | 39.17388 | 0.60301 | 37937 ft | 397 kts | 286° |
| 2026-05-04 20:30 | 39.19329 | 0.53648 | 37942 ft | 397 kts | 285° |
| 2026-05-04 20:31 | 39.21278 | 0.46968 | 37944 ft | 398 kts | 286° |
| 2026-05-04 20:31 | 39.22897 | 0.41422 | 37947 ft | 398 kts | 285° |
| 2026-05-04 20:32 | 39.24856 | 0.34695 | 37981 ft | 397 kts | 285° |
| 2026-05-04 20:32 | 39.26793 | 0.28015 | 37974 ft | 396 kts | 285° |
| 2026-05-04 20:33 | 39.28719 | 0.21365 | 37967 ft | 395 kts | 285° |
| 2026-05-04 20:33 | 39.30613 | 0.14771 | 37964 ft | 394 kts | 285° |
| 2026-05-04 20:34 | 39.32524 | 0.08128 | 37965 ft | 394 kts | 285° |
| 2026-05-04 20:34 | 39.34426 | 0.01505 | 37962 ft | 394 kts | 285° |
| 2026-05-04 20:35 | 39.36324 | -0.05132 | 37954 ft | 393 kts | 285° |
| 2026-05-04 20:35 | 39.38221 | -0.11748 | 37947 ft | 393 kts | 285° |
| 2026-05-04 20:36 | 39.40113 | -0.18392 | 37960 ft | 394 kts | 285° |
| 2026-05-04 20:36 | 39.42006 | -0.25074 | 37971 ft | 395 kts | 285° |
| 2026-05-04 20:37 | 39.43893 | -0.31732 | 37980 ft | 395 kts | 285° |
| 2026-05-04 20:37 | 39.45779 | -0.38413 | 37986 ft | 395 kts | 285° |
| 2026-05-04 20:38 | 39.47655 | -0.45081 | 37987 ft | 395 kts | 285° |
| 2026-05-04 20:38 | 39.49997 | -0.51559 | 37986 ft | 401 kts | 294° |
| 2026-05-04 20:39 | 39.52788 | -0.57814 | 37986 ft | 401 kts | 294° |
| 2026-05-04 20:39 | 39.55564 | -0.64091 | 37985 ft | 401 kts | 294° |
| 2026-05-04 20:40 | 39.58325 | -0.70363 | 37988 ft | 401 kts | 294° |
| 2026-05-04 20:40 | 39.61088 | -0.76660 | 37976 ft | 402 kts | 294° |
| 2026-05-04 20:41 | 39.63861 | -0.82980 | 37958 ft | 403 kts | 294° |
| 2026-05-04 20:41 | 39.66639 | -0.89310 | 37958 ft | 404 kts | 294° |
| 2026-05-04 20:42 | 39.69415 | -0.95665 | 37985 ft | 405 kts | 294° |
| 2026-05-04 20:42 | 39.72198 | -1.02035 | 37999 ft | 406 kts | 294° |
| 2026-05-04 20:43 | 39.74979 | -1.08422 | 38008 ft | 406 kts | 294° |
| 2026-05-04 20:43 | 39.77752 | -1.14803 | 38017 ft | 405 kts | 294° |
| 2026-05-04 20:44 | 39.80547 | -1.21176 | 37512 ft | 409 kts | 294° |
| 2026-05-04 20:44 | 39.81956 | -1.24403 | 36798 ft | 409 kts | 294° |
| 2026-05-04 20:44 | 39.83360 | -1.27633 | 35987 ft | 412 kts | 294° |
| 2026-05-04 20:45 | 39.84766 | -1.30881 | 35129 ft | 415 kts | 294° |
| 2026-05-04 20:45 | 39.86188 | -1.34181 | 34244 ft | 420 kts | 294° |
| 2026-05-04 20:45 | 39.87627 | -1.37529 | 33169 ft | 426 kts | 294° |
| 2026-05-04 20:45 | 39.89072 | -1.40887 | 32224 ft | 427 kts | 294° |
| 2026-05-04 20:46 | 39.90526 | -1.44262 | 31443 ft | 426 kts | 294° |
| 2026-05-04 20:46 | 39.91974 | -1.47613 | 30744 ft | 422 kts | 294° |
| 2026-05-04 20:46 | 39.93409 | -1.50932 | 30097 ft | 418 kts | 294° |
| 2026-05-04 20:46 | 39.94824 | -1.54206 | 29399 ft | 413 kts | 294° |
| 2026-05-04 20:47 | 39.96223 | -1.57452 | 28762 ft | 406 kts | 294° |
| 2026-05-04 20:47 | 39.97589 | -1.60637 | 28159 ft | 400 kts | 294° |
| 2026-05-04 20:47 | 39.98937 | -1.63794 | 27549 ft | 396 kts | 294° |
| 2026-05-04 20:47 | 40.00268 | -1.66909 | 26958 ft | 391 kts | 294° |
| 2026-05-04 20:48 | 40.01585 | -1.69998 | 26376 ft | 387 kts | 294° |
| 2026-05-04 20:48 | 40.02888 | -1.73055 | 25802 ft | 384 kts | 294° |
| 2026-05-04 20:48 | 40.04178 | -1.76080 | 25250 ft | 380 kts | 294° |
| 2026-05-04 20:48 | 40.05459 | -1.79080 | 24707 ft | 376 kts | 294° |
| 2026-05-04 20:49 | 40.06721 | -1.82041 | 24186 ft | 372 kts | 294° |
| 2026-05-04 20:49 | 40.07975 | -1.84991 | 23677 ft | 369 kts | 294° |
| 2026-05-04 20:49 | 40.09208 | -1.87900 | 23147 ft | 365 kts | 294° |
| 2026-05-04 20:49 | 40.10427 | -1.90778 | 22660 ft | 359 kts | 294° |
| 2026-05-04 20:50 | 40.11630 | -1.93616 | 22217 ft | 354 kts | 294° |
| 2026-05-04 20:50 | 40.12804 | -1.96387 | 21760 ft | 350 kts | 294° |
| 2026-05-04 20:50 | 40.13993 | -1.99190 | 21290 ft | 347 kts | 294° |
| 2026-05-04 20:50 | 40.15141 | -2.01898 | 20854 ft | 344 kts | 294° |
| 2026-05-04 20:51 | 40.16323 | -2.04695 | 20443 ft | 349 kts | 294° |
| 2026-05-04 20:51 | 40.17497 | -2.07475 | 20027 ft | 349 kts | 294° |
| 2026-05-04 20:51 | 40.18670 | -2.10254 | 19609 ft | 348 kts | 295° |
| 2026-05-04 20:51 | 40.19838 | -2.13017 | 19187 ft | 346 kts | 295° |
| 2026-05-04 20:52 | 40.21001 | -2.15777 | 18776 ft | 345 kts | 295° |
| 2026-05-04 20:52 | 40.22153 | -2.18516 | 18373 ft | 343 kts | 295° |
| 2026-05-04 20:52 | 40.23303 | -2.21247 | 17941 ft | 341 kts | 295° |
| 2026-05-04 20:52 | 40.24450 | -2.23961 | 17511 ft | 341 kts | 295° |
| 2026-05-04 20:53 | 40.25506 | -2.26723 | 17084 ft | 337 kts | 287° |
| 2026-05-04 20:53 | 40.26107 | -2.29642 | 16704 ft | 331 kts | 276° |
| 2026-05-04 20:53 | 40.26227 | -2.32629 | 16309 ft | 326 kts | 267° |
| 2026-05-04 20:53 | 40.26198 | -2.35561 | 15923 ft | 325 kts | 267° |
| 2026-05-04 20:54 | 40.26177 | -2.38510 | 15536 ft | 324 kts | 267° |
| 2026-05-04 20:54 | 40.26161 | -2.41488 | 15155 ft | 323 kts | 267° |
| 2026-05-04 20:54 | 40.26151 | -2.44385 | 14765 ft | 321 kts | 267° |
| 2026-05-04 20:54 | 40.26141 | -2.47286 | 14541 ft | 313 kts | 267° |
| 2026-05-04 20:55 | 40.26128 | -2.50119 | 14419 ft | 302 kts | 267° |
| 2026-05-04 20:55 | 40.26113 | -2.52832 | 14291 ft | 292 kts | 267° |
| 2026-05-04 20:55 | 40.26099 | -2.55443 | 14172 ft | 283 kts | 267° |
| 2026-05-04 20:55 | 40.26084 | -2.57986 | 14052 ft | 274 kts | 267° |
| 2026-05-04 20:56 | 40.26067 | -2.60451 | 13935 ft | 266 kts | 266° |
| 2026-05-04 20:56 | 40.26057 | -2.62832 | 13818 ft | 259 kts | 267° |
| 2026-05-04 20:56 | 40.26051 | -2.65164 | 13663 ft | 253 kts | 267° |
| 2026-05-04 20:56 | 40.26045 | -2.67470 | 13244 ft | 256 kts | 267° |
| 2026-05-04 20:57 | 40.26041 | -2.69796 | 12923 ft | 255 kts | 267° |
| 2026-05-04 20:57 | 40.26034 | -2.72117 | 12661 ft | 253 kts | 267° |
| 2026-05-04 20:57 | 40.26028 | -2.74410 | 12410 ft | 250 kts | 267° |
| 2026-05-04 20:57 | 40.26021 | -2.76668 | 12163 ft | 247 kts | 267° |
| 2026-05-04 20:58 | 40.26011 | -2.78907 | 11922 ft | 245 kts | 267° |
| 2026-05-04 20:58 | 40.25998 | -2.81134 | 11678 ft | 244 kts | 267° |
| 2026-05-04 20:58 | 40.25984 | -2.83354 | 11437 ft | 244 kts | 268° |
| 2026-05-04 20:58 | 40.25972 | -2.85583 | 11194 ft | 244 kts | 268° |
| 2026-05-04 20:59 | 40.25960 | -2.87769 | 10955 ft | 244 kts | 268° |
| 2026-05-04 20:59 | 40.25947 | -2.90013 | 10708 ft | 243 kts | 268° |
| 2026-05-04 20:59 | 40.25937 | -2.92200 | 10471 ft | 243 kts | 268° |
| 2026-05-04 20:59 | 40.25928 | -2.94412 | 10229 ft | 243 kts | 268° |
| 2026-05-04 21:00 | 40.25916 | -2.96656 | 9973 ft | 243 kts | 268° |
| 2026-05-04 21:00 | 40.25905 | -2.98855 | 9734 ft | 242 kts | 269° |
| 2026-05-04 21:00 | 40.25893 | -3.01062 | 9484 ft | 242 kts | 269° |
| 2026-05-04 21:00 | 40.25880 | -3.03253 | 9246 ft | 241 kts | 269° |
| 2026-05-04 21:01 | 40.25864 | -3.05440 | 9006 ft | 240 kts | 269° |
| 2026-05-04 21:01 | 40.25847 | -3.07615 | 8763 ft | 239 kts | 269° |
| 2026-05-04 21:01 | 40.25834 | -3.09788 | 8526 ft | 238 kts | 269° |
| 2026-05-04 21:01 | 40.25820 | -3.11951 | 8291 ft | 237 kts | 269° |
| 2026-05-04 21:02 | 40.25870 | -3.14102 | 8058 ft | 236 kts | 278° |
| 2026-05-04 21:02 | 40.26153 | -3.16222 | 7824 ft | 236 kts | 279° |
| 2026-05-04 21:02 | 40.26435 | -3.18324 | 7593 ft | 235 kts | 279° |
| 2026-05-04 21:02 | 40.26714 | -3.20422 | 7362 ft | 232 kts | 279° |
| 2026-05-04 21:03 | 40.26987 | -3.22484 | 7131 ft | 227 kts | 279° |
| 2026-05-04 21:03 | 40.27253 | -3.24497 | 6909 ft | 223 kts | 279° |
| 2026-05-04 21:03 | 40.27515 | -3.26484 | 6688 ft | 220 kts | 279° |
| 2026-05-04 21:03 | 40.27775 | -3.28456 | 6468 ft | 219 kts | 279° |
| 2026-05-04 21:04 | 40.28033 | -3.30421 | 6243 ft | 219 kts | 279° |
| 2026-05-04 21:04 | 40.28432 | -3.32346 | 6038 ft | 218 kts | 294° |
| 2026-05-04 21:04 | 40.29237 | -3.34021 | 5888 ft | 219 kts | 309° |
| 2026-05-04 21:04 | 40.30228 | -3.35531 | 5738 ft | 219 kts | 309° |
| 2026-05-04 21:05 | 40.31216 | -3.37048 | 5587 ft | 218 kts | 309° |
| 2026-05-04 21:05 | 40.32254 | -3.38471 | 5442 ft | 214 kts | 321° |
| 2026-05-04 21:05 | 40.33443 | -3.39598 | 5300 ft | 208 kts | 322° |
| 2026-05-04 21:05 | 40.34581 | -3.40703 | 5059 ft | 200 kts | 321° |
| 2026-05-04 21:06 | 40.35306 | -3.41460 | 4886 ft | 196 kts | 317° |
| 2026-05-04 21:06 | 40.36363 | -3.42581 | 4565 ft | 194 kts | 322° |
| 2026-05-04 21:06 | 40.37440 | -3.43581 | 4288 ft | 182 kts | 323° |
| 2026-05-04 21:06 | 40.38442 | -3.44544 | 4054 ft | 176 kts | 322° |
| 2026-05-04 21:07 | 40.39408 | -3.45515 | 3844 ft | 174 kts | 321° |
| 2026-05-04 21:07 | 40.40345 | -3.46508 | 3606 ft | 172 kts | 320° |
| 2026-05-04 21:07 | 40.41274 | -3.47508 | 3421 ft | 164 kts | 321° |
| 2026-05-04 21:07 | 40.42150 | -3.48371 | 3242 ft | 160 kts | 323° |
| 2026-05-04 21:08 | 40.43002 | -3.49187 | 3092 ft | 147 kts | 321° |
| 2026-05-04 21:08 | 40.43796 | -3.50026 | 2852 ft | 142 kts | 321° |
| 2026-05-04 21:08 | 40.44615 | -3.50851 | 2645 ft | 139 kts | 322° |
| 2026-05-04 21:08 | 40.45342 | -3.51585 | 2439 ft | 139 kts | 321° |
| 2026-05-04 21:09 | 40.46107 | -3.52359 | 2278 ft | 139 kts | 320° |
| 2026-05-04 21:09 | 40.46876 | -3.53136 | 2062 ft | 140 kts | 320° |
| 2026-05-04 21:09 | 40.47642 | -3.53914 | 1920 ft | 134 kts | 320° |
| 2026-05-04 21:09 | 40.48255 | -3.54540 | 1934 ft | 86 kts | 322° |
| 2026-05-04 21:10 | 40.48641 | -3.54934 | 1947 ft | 58 kts | 322° |
| 2026-05-04 21:10 | 40.48808 | -3.55229 | 1952 ft | 34 kts | 285° |
| 2026-05-04 21:10 | 40.48916 | -3.55489 | 1953 ft | 32 kts | 324° |
| 2026-05-04 21:10 | 40.49093 | -3.55661 | 1957 ft | 30 kts | 321° |
| 2026-05-04 21:11 | 40.49254 | -3.55830 | 1960 ft | 29 kts | 322° |
| 2026-05-04 21:11 | 40.49300 | -3.56044 | 1959 ft | 26 kts | 269° |
| 2026-05-04 21:11 | 40.49277 | -3.56239 | 1961 ft | 15 kts | 209° |
| 2026-05-04 21:11 | 40.49162 | -3.56247 | 1962 ft | 18 kts | 179° |
| 2026-05-04 21:12 | 40.49023 | -3.56247 | 1962 ft | 21 kts | 180° |
| 2026-05-04 21:12 | 40.48873 | -3.56248 | 1962 ft | 21 kts | 181° |
| 2026-05-04 21:12 | 40.48770 | -3.56292 | 1963 ft | 13 kts | 262° |
| 2026-05-04 21:12 | 40.48769 | -3.56419 | 1967 ft | 16 kts | 270° |
| 2026-05-04 21:13 | 40.48768 | -3.56586 | 1972 ft | 20 kts | 269° |
| 2026-05-04 21:13 | 40.48767 | -3.56791 | 1978 ft | 25 kts | 269° |
| 2026-05-04 21:13 | 40.48765 | -3.57034 | 1980 ft | 28 kts | 270° |
| 2026-05-04 21:13 | 40.48765 | -3.57308 | 1985 ft | 31 kts | 270° |
| 2026-05-04 21:14 | 40.48763 | -3.57605 | 1991 ft | 34 kts | 270° |
| 2026-05-04 21:14 | 40.48763 | -3.57881 | 1997 ft | 13 kts | 263° |
| 2026-05-04 21:14 | 40.48684 | -3.57929 | 1999 ft | 16 kts | 180° |
| 2026-05-04 21:14 | 40.48558 | -3.57893 | 1998 ft | 22 kts | 152° |
| 2026-05-04 21:15 | 40.48395 | -3.57772 | 1993 ft | 29 kts | 148° |
| 2026-05-04 21:15 | 40.48236 | -3.57615 | 1997 ft | 28 kts | 142° |
| 2026-05-04 21:15 | 40.48081 | -3.57457 | 2002 ft | 28 kts | 142° |
| 2026-05-04 21:15 | 40.47926 | -3.57299 | 2004 ft | 28 kts | 142° |
| 2026-05-04 21:16 | 40.47761 | -3.57132 | 2000 ft | 31 kts | 142° |
| 2026-05-04 21:16 | 40.47581 | -3.56949 | 1994 ft | 34 kts | 142° |
| 2026-05-04 21:16 | 40.47389 | -3.56754 | 1988 ft | 34 kts | 142° |
| 2026-05-04 21:16 | 40.47195 | -3.56556 | 1981 ft | 37 kts | 142° |
| 2026-05-04 21:17 | 40.46950 | -3.56453 | 1979 ft | 38 kts | 182° |
| 2026-05-04 21:17 | 40.46690 | -3.56474 | 1978 ft | 38 kts | 183° |
| 2026-05-04 21:17 | 40.46439 | -3.56492 | 1972 ft | 32 kts | 183° |
| 2026-05-04 21:17 | 40.46297 | -3.56540 | 1975 ft | 17 kts | 241° |
| 2026-05-04 21:18 | 40.46297 | -3.56691 | 1971 ft | 17 kts | 268° |
| 2026-05-04 21:18 | 40.46303 | -3.56771 | 1974 ft | 2 kts | 261° |
| 2026-05-04 21:18 | 40.46298 | -3.56784 | 1971 ft | 2 kts | 237° |
| 2026-05-04 21:18 | 40.46256 | -3.56822 | 1974 ft | 9 kts | 237° |
| 2026-05-04 21:19 | 40.46279 | -3.56896 | 1972 ft | 9 kts | 302° |
| 2026-05-04 21:19 | 40.46287 | -3.56912 | 1977 ft | 0 kts | 300° |